createdAt,value
2018-09-09T00:02:26.186Z,99255.98
2018-09-09T00:05:31.131Z,99259.11
2018-09-09T00:08:36.054Z,99261.16
2018-09-09T00:11:40.997Z,99258.90
2018-09-09T00:14:46.141Z,99251.50
2018-09-09T00:17:51.086Z,99255.05
2018-09-09T00:20:56.042Z,99253.16
2018-09-09T00:24:01.002Z,99258.92
2018-09-09T00:27:05.975Z,99260.06
2018-09-09T00:30:10.938Z,99256.28
2018-09-09T00:33:15.881Z,99258.15
2018-09-09T00:36:20.839Z,99253.21
2018-09-09T00:39:25.782Z,99256.86
2018-09-09T00:42:30.725Z,99256.17
2018-09-09T00:45:35.662Z,99257.19
2018-09-09T00:48:40.602Z,99258.48
2018-09-09T00:51:51.350Z,99263.78
2018-09-09T00:54:56.276Z,99262.09
2018-09-09T00:58:01.193Z,99261.87
2018-09-09T01:01:12.026Z,99269.60
2018-09-09T01:04:16.953Z,99264.18
2018-09-09T01:07:21.876Z,99264.33
2018-09-09T01:10:26.813Z,99266.06
2018-09-09T01:13:31.732Z,99273.19
2018-09-09T01:16:36.678Z,99263.53
2018-09-09T01:19:42.021Z,99268.22
2018-09-09T01:22:46.940Z,99262.36
2018-09-09T01:25:51.893Z,99261.39
2018-09-09T01:28:56.816Z,99264.98
2018-09-09T01:32:01.729Z,99263.70
2018-09-09T01:35:06.698Z,99268.72
2018-09-09T01:38:11.608Z,99260.11
2018-09-09T01:41:16.537Z,99261.05
2018-09-09T01:44:21.468Z,99262.30
2018-09-09T01:47:26.405Z,99269.80
2018-09-09T01:50:31.352Z,99262.91
2018-09-09T01:53:36.276Z,99261.09
2018-09-09T01:56:41.227Z,99260.11
2018-09-09T01:59:46.185Z,99258.30
2018-09-09T02:02:51.095Z,99259.72
2018-09-09T02:05:56.034Z,99262.92
2018-09-09T02:09:00.972Z,99259.36
2018-09-09T02:12:05.914Z,99257.58
2018-09-09T02:15:10.890Z,99266.59
2018-09-09T02:18:15.822Z,99259.97
2018-09-09T02:21:20.786Z,99269.20
2018-09-09T02:24:26.000Z,99267.28
2018-09-09T02:27:30.941Z,99270.25
2018-09-09T02:30:35.885Z,99270.91
2018-09-09T02:33:40.849Z,99272.73
2018-09-09T02:36:45.829Z,99265.90
2018-09-09T02:39:50.828Z,99266.46
2018-09-09T02:42:55.761Z,99267.45
2018-09-09T02:46:00.709Z,99268.90
2018-09-09T02:49:05.625Z,99266.09
2018-09-09T02:52:10.559Z,99271.27
2018-09-09T02:55:15.477Z,99275.02
2018-09-09T02:58:20.381Z,99273.75
2018-09-09T03:01:25.341Z,99272.07
2018-09-09T03:04:30.333Z,99281.70
2018-09-09T03:07:35.264Z,99279.52
2018-09-09T03:10:40.220Z,99286.48
2018-09-09T03:13:45.689Z,99285.58
2018-09-09T03:16:50.648Z,99288.17
2018-09-09T03:19:55.627Z,99277.66
2018-09-09T03:23:00.590Z,99282.80
2018-09-09T03:26:05.542Z,99282.31
2018-09-09T03:29:10.517Z,99273.05
2018-09-09T03:32:15.446Z,99275.36
2018-09-09T03:35:20.445Z,99272.20
2018-09-09T03:38:25.381Z,99268.22
2018-09-09T03:41:30.334Z,99268.85
2018-09-09T03:44:35.289Z,99264.36
2018-09-09T03:47:40.226Z,99261.54
2018-09-09T03:50:45.134Z,99258.98
2018-09-09T03:53:50.037Z,99259.73
2018-09-09T03:56:54.973Z,99258.71
2018-09-09T03:59:59.909Z,99268.98
2018-09-09T04:03:05.269Z,99270.80
2018-09-09T04:06:10.208Z,99276.84
2018-09-09T04:09:15.141Z,99274.16
2018-09-09T04:12:20.054Z,99283.40
2018-09-09T04:15:25.001Z,99285.71
2018-09-09T04:18:29.944Z,99297.77
2018-09-09T04:21:41.353Z,99299.05
2018-09-09T04:24:46.293Z,99301.36
2018-09-09T04:27:51.217Z,99302.41
2018-09-09T04:30:56.246Z,99310.36
2018-09-09T04:34:01.107Z,99312.79
2018-09-09T04:37:06.062Z,99303.93
2018-09-09T04:40:11.047Z,99304.46
2018-09-09T04:43:16.001Z,99299.56
2018-09-09T04:46:20.969Z,99303.03
2018-09-09T04:49:25.893Z,99299.30
2018-09-09T04:52:30.833Z,99295.41
2018-09-09T04:55:35.783Z,99301.33
2018-09-09T04:58:40.742Z,99290.67
2018-09-09T05:01:45.700Z,99293.34
2018-09-09T05:04:50.650Z,99286.66
2018-09-09T05:07:55.589Z,99291.02
2018-09-09T05:11:00.505Z,99296.16
2018-09-09T05:14:05.641Z,99301.58
2018-09-09T05:17:10.602Z,99307.73
2018-09-09T05:20:15.535Z,99313.00
2018-09-09T05:23:20.479Z,99313.88
2018-09-09T05:26:25.417Z,99312.73
2018-09-09T05:29:30.406Z,99320.95
2018-09-09T05:32:35.374Z,99330.58
2018-09-09T05:35:40.320Z,99328.27
2018-09-09T05:38:45.439Z,99322.36
2018-09-09T05:41:50.373Z,99334.32
2018-09-09T05:44:55.281Z,99332.16
2018-09-09T05:48:00.211Z,99325.34
2018-09-09T05:51:05.942Z,99332.14
2018-09-09T05:54:10.885Z,99322.50
2018-09-09T05:57:15.825Z,99316.94
2018-09-09T06:00:20.771Z,99325.66
2018-09-09T06:03:25.708Z,99340.07
2018-09-09T06:06:30.661Z,99331.33
2018-09-09T06:09:35.601Z,99330.03
2018-09-09T06:12:40.595Z,99332.58
2018-09-09T06:15:45.503Z,99333.27
2018-09-09T06:18:50.437Z,99332.16
2018-09-09T06:21:55.365Z,99334.05
2018-09-09T06:25:00.300Z,99324.30
2018-09-09T06:28:05.234Z,99319.02
2018-09-09T06:31:10.141Z,99313.39
2018-09-09T06:34:15.086Z,99317.78
2018-09-09T06:37:20.029Z,99319.42
2018-09-09T06:40:24.957Z,99319.58
2018-09-09T06:43:29.885Z,99317.83
2018-09-09T06:46:35.097Z,99315.90
2018-09-09T06:49:40.043Z,99320.05
2018-09-09T06:52:44.976Z,99324.58
2018-09-09T06:55:49.901Z,99324.77
2018-09-09T06:58:54.829Z,99319.02
2018-09-09T07:01:59.741Z,99313.47
2018-09-09T07:05:04.734Z,99312.39
2018-09-09T07:08:09.697Z,99301.11
2018-09-09T07:11:14.723Z,99309.52
2018-09-09T07:14:19.583Z,99303.32
2018-09-09T07:17:24.662Z,99314.57
2018-09-09T07:20:29.625Z,99314.45
2018-09-09T07:23:34.557Z,99308.90
2018-09-09T07:26:39.491Z,99302.34
2018-09-09T07:29:44.511Z,99305.30
2018-09-09T07:32:49.490Z,99295.93
2018-09-09T07:35:54.487Z,99299.75
2018-09-09T07:38:59.433Z,99307.06
2018-09-09T07:42:04.392Z,99308.77
2018-09-09T07:45:09.327Z,99309.50
2018-09-09T07:48:14.306Z,99301.20
2018-09-09T07:51:19.245Z,99303.78
2018-09-09T07:54:24.306Z,99306.28
2018-09-09T07:57:29.249Z,99309.64
2018-09-09T08:00:34.432Z,99302.95
2018-09-09T08:03:39.310Z,99304.06
2018-09-09T08:06:44.335Z,99311.18
2018-09-09T08:09:49.280Z,99308.91
2018-09-09T08:12:54.215Z,99310.09
2018-09-09T08:15:59.172Z,99307.69
2018-09-09T08:19:04.513Z,99315.80
2018-09-09T08:22:09.463Z,99324.91
2018-09-09T08:25:14.457Z,99321.76
2018-09-09T08:28:19.495Z,99321.23
2018-09-09T08:31:24.653Z,99313.38
2018-09-09T08:34:29.611Z,99312.53
2018-09-09T08:37:34.545Z,99308.80
2018-09-09T08:40:39.501Z,99310.55
2018-09-09T08:43:45.305Z,99326.72
2018-09-09T08:46:50.283Z,99327.05
2018-09-09T08:49:55.269Z,99317.94
2018-09-09T08:53:00.203Z,99315.73
2018-09-09T08:56:05.329Z,99314.29
2018-09-09T08:59:10.286Z,99317.20
2018-09-09T09:02:15.267Z,99323.84
2018-09-09T09:05:20.262Z,99318.81
2018-09-09T09:08:25.185Z,99312.10
2018-09-09T09:11:30.160Z,99314.70
2018-09-09T09:14:35.137Z,99315.91
2018-09-09T09:17:40.039Z,99317.81
2018-09-09T09:20:45.071Z,99320.20
2018-09-09T09:23:49.938Z,99318.41
2018-09-09T09:26:54.875Z,99319.66
2018-09-09T09:29:59.900Z,99316.77
2018-09-09T09:33:05.090Z,99325.36
2018-09-09T09:36:10.022Z,99327.23
2018-09-09T09:39:15.123Z,99326.86
2018-09-09T09:42:20.040Z,99330.96
2018-09-09T09:45:24.954Z,99320.75
2018-09-09T09:48:29.922Z,99325.94
2018-09-09T09:51:34.859Z,99320.84
2018-09-09T09:54:40.049Z,99317.83
2018-09-09T09:57:44.981Z,99319.52
2018-09-09T10:00:55.579Z,99321.48
2018-09-09T10:04:00.692Z,99320.88
2018-09-09T10:07:05.633Z,99322.52
2018-09-09T10:10:10.541Z,99310.95
2018-09-09T10:13:15.573Z,99297.82
2018-09-09T10:16:20.497Z,99303.84
2018-09-09T10:19:25.491Z,99291.61
2018-09-09T10:22:30.385Z,99296.30
2018-09-09T10:25:35.305Z,99296.73
2018-09-09T10:28:40.236Z,99297.55
2018-09-09T10:31:45.193Z,99289.47
2018-09-09T10:34:50.189Z,99290.77
2018-09-09T10:37:55.112Z,99300.73
2018-09-09T10:41:00.073Z,99296.52
2018-09-09T10:44:05.002Z,99301.34
2018-09-09T10:47:09.986Z,99297.23
2018-09-09T10:50:14.865Z,99305.39
2018-09-09T10:53:19.812Z,99308.37
2018-09-09T10:56:24.785Z,99305.17
2018-09-09T10:59:29.708Z,99312.00
2018-09-09T11:02:34.666Z,99306.15
2018-09-09T11:05:39.915Z,99304.16
2018-09-09T11:08:44.856Z,99298.16
2018-09-09T11:11:49.820Z,99298.30
2018-09-09T11:14:54.769Z,99292.75
2018-09-09T11:17:59.693Z,99294.39
2018-09-09T11:21:04.756Z,99290.70
2018-09-09T11:24:09.769Z,99290.55
2018-09-09T11:27:14.697Z,99289.75
2018-09-09T11:30:19.641Z,99285.59
2018-09-09T11:33:24.613Z,99288.28
2018-09-09T11:36:29.591Z,99288.09
2018-09-09T11:39:34.541Z,99277.05
2018-09-09T11:42:39.521Z,99277.70
2018-09-09T11:45:44.458Z,99281.09
2018-09-09T11:48:49.440Z,99276.64
2018-09-09T11:51:54.401Z,99278.75
2018-09-09T11:54:59.338Z,99270.53
2018-09-09T11:58:04.465Z,99267.84
2018-09-09T12:01:09.410Z,99273.89
2018-09-09T12:04:14.342Z,99268.50
2018-09-09T12:07:19.439Z,99273.23
2018-09-09T12:10:24.387Z,99274.29
2018-09-09T12:13:29.343Z,99267.76
2018-09-09T12:16:34.305Z,99264.72
2018-09-09T12:19:39.257Z,99261.92
2018-09-09T12:22:44.321Z,99272.52
2018-09-09T12:25:49.259Z,99275.16
2018-09-09T12:28:54.403Z,99276.11
2018-09-09T12:31:59.409Z,99281.90
2018-09-09T12:35:04.583Z,99271.88
2018-09-09T12:38:09.537Z,99278.76
2018-09-09T12:41:14.505Z,99277.94
2018-09-09T12:44:25.417Z,99277.52
2018-09-09T12:47:36.012Z,99277.27
2018-09-09T12:50:40.974Z,99276.19
2018-09-09T12:53:45.934Z,99268.84
2018-09-09T12:56:50.939Z,99274.59
2018-09-09T12:59:55.957Z,99274.16
2018-09-09T13:03:00.902Z,99271.27
2018-09-09T13:06:05.881Z,99267.64
2018-09-09T13:09:10.832Z,99274.00
2018-09-09T13:12:15.773Z,99264.09
2018-09-09T13:15:20.713Z,99265.08
2018-09-09T13:18:25.676Z,99259.81
2018-09-09T13:21:30.739Z,99262.37
2018-09-09T13:24:35.664Z,99258.53
2018-09-09T13:27:40.641Z,99262.00
2018-09-09T13:30:45.586Z,99264.02
2018-09-09T13:33:50.542Z,99260.95
2018-09-09T13:36:55.593Z,99248.98
2018-09-09T13:40:00.549Z,99244.43
2018-09-09T13:43:05.585Z,99244.80
2018-09-09T13:46:10.645Z,99238.44
2018-09-09T13:49:15.613Z,99232.86
2018-09-09T13:52:20.852Z,99234.27
2018-09-09T13:55:25.835Z,99228.13
2018-09-09T13:58:30.765Z,99229.09
2018-09-09T14:01:35.674Z,99232.70
2018-09-09T14:04:40.619Z,99230.26
2018-09-09T14:07:45.537Z,99222.08
2018-09-09T14:10:50.503Z,99226.67
2018-09-09T14:13:55.482Z,99227.10
2018-09-09T14:17:00.405Z,99218.04
2018-09-09T14:20:05.345Z,99212.17
2018-09-09T14:23:10.285Z,99214.02
2018-09-09T14:26:15.193Z,99214.09
2018-09-09T14:29:20.196Z,99208.86
2018-09-09T14:32:25.105Z,99206.45
2018-09-09T14:35:30.025Z,99211.95
2018-09-09T14:38:34.978Z,99206.32
2018-09-09T14:41:39.933Z,99210.34
2018-09-09T14:44:44.860Z,99205.11
2018-09-09T14:47:49.816Z,99208.00
2018-09-09T14:50:54.749Z,99203.13
2018-09-09T14:53:59.685Z,99204.89
2018-09-09T14:57:04.674Z,99206.21
2018-09-09T15:00:12.265Z,99200.50
2018-09-09T15:03:17.213Z,99188.67
2018-09-09T15:06:22.205Z,99186.58
2018-09-09T15:09:27.189Z,99181.45
2018-09-09T15:12:32.223Z,99178.39
2018-09-09T15:15:37.208Z,99186.06
2018-09-09T15:18:42.177Z,99183.03
2018-09-09T15:21:47.113Z,99177.24
2018-09-09T15:24:52.083Z,99172.98
2018-09-09T15:27:57.071Z,99169.63
2018-09-09T15:31:02.044Z,99167.51
2018-09-09T15:34:07.018Z,99174.89
2018-09-09T15:37:11.976Z,99169.54
2018-09-09T15:40:16.941Z,99176.92
2018-09-09T15:43:21.976Z,99172.50
2018-09-09T15:46:26.986Z,99172.93
2018-09-09T15:49:31.967Z,99176.77
2018-09-09T15:52:37.039Z,99176.13
2018-09-09T15:55:42.011Z,99178.80
2018-09-09T15:58:47.709Z,99175.03
2018-09-09T16:01:52.679Z,99175.42
2018-09-09T16:04:57.654Z,99174.33
2018-09-09T16:08:02.625Z,99176.09
2018-09-09T16:11:07.643Z,99178.59
2018-09-09T16:14:12.618Z,99176.73
2018-09-09T16:17:17.561Z,99174.53
2018-09-09T16:20:22.529Z,99179.58
2018-09-09T16:23:27.543Z,99179.97
2018-09-09T16:26:32.462Z,99180.19
2018-09-09T16:29:37.413Z,99181.36
2018-09-09T16:32:42.382Z,99176.92
2018-09-09T16:35:47.399Z,99186.80
2018-09-09T16:38:52.438Z,99190.60
2018-09-09T16:41:58.109Z,99191.96
2018-09-09T16:45:03.194Z,99190.21
2018-09-09T16:48:08.198Z,99194.78
2018-09-09T16:51:14.085Z,99205.09
2018-09-09T16:54:19.082Z,99205.59
2018-09-09T16:57:24.063Z,99205.77
2018-09-09T17:00:29.015Z,99216.66
2018-09-09T17:03:33.990Z,99213.21
2018-09-09T17:06:39.017Z,99207.22
2018-09-09T17:09:44.009Z,99209.66
2018-09-09T17:12:49.046Z,99208.00
2018-09-09T17:15:54.043Z,99213.56
2018-09-09T17:18:58.998Z,99215.55
2018-09-09T17:22:04.007Z,99221.28
2018-09-09T17:25:09.000Z,99219.25
2018-09-09T17:28:13.951Z,99224.13
2018-09-09T17:31:18.966Z,99225.46
2018-09-09T17:34:23.962Z,99230.09
2018-09-09T17:37:28.915Z,99230.50
2018-09-09T17:40:33.923Z,99235.95
2018-09-09T17:43:39.131Z,99241.45
2018-09-09T17:46:44.132Z,99238.19
2018-09-09T17:49:49.173Z,99240.33
2018-09-09T17:52:54.398Z,99245.09
2018-09-09T17:55:59.591Z,99258.64
2018-09-09T17:59:04.585Z,99254.22
2018-09-09T18:02:09.580Z,99262.42
2018-09-09T18:05:14.533Z,99263.30
2018-09-09T18:08:19.562Z,99265.10
2018-09-09T18:11:24.583Z,99275.42
2018-09-09T18:14:29.553Z,99274.84
2018-09-09T18:17:34.620Z,99276.17
2018-09-09T18:20:39.499Z,99277.44
2018-09-09T18:23:44.428Z,99282.13
2018-09-09T18:26:49.385Z,99281.61
2018-09-09T18:29:54.624Z,99288.30
2018-09-09T18:32:59.710Z,99285.88
2018-09-09T18:36:04.793Z,99293.42
2018-09-09T18:39:10.470Z,99292.06
2018-09-09T18:42:15.284Z,99293.28
2018-09-09T18:45:20.501Z,99296.14
2018-09-09T18:48:25.498Z,99296.88
2018-09-09T18:51:30.495Z,99304.14
2018-09-09T18:54:35.421Z,99307.61
2018-09-09T18:57:40.969Z,99306.14
2018-09-09T19:00:46.009Z,99308.72
2018-09-09T19:03:50.962Z,99305.66
2018-09-09T19:06:55.966Z,99314.23
2018-09-09T19:10:01.026Z,99322.31
2018-09-09T19:13:06.214Z,99319.51
2018-09-09T19:16:11.710Z,99320.53
2018-09-09T19:19:16.794Z,99322.50
2018-09-09T19:22:21.821Z,99335.02
2018-09-09T19:25:26.954Z,99333.33
2018-09-09T19:28:32.002Z,99328.37
2018-09-09T19:31:37.449Z,99336.46
2018-09-09T19:34:42.857Z,99336.13
2018-09-09T19:37:47.833Z,99334.41
2018-09-09T19:40:53.236Z,99333.08
2018-09-09T19:43:58.233Z,99335.19
2018-09-09T19:47:04.249Z,99330.50
2018-09-09T19:50:09.211Z,99328.73
2018-09-09T19:53:14.192Z,99333.31
2018-09-09T19:56:19.140Z,99334.69
2018-09-09T19:59:24.091Z,99341.41
2018-09-09T20:02:29.174Z,99337.68
2018-09-09T20:05:34.086Z,99340.22
2018-09-09T20:08:39.060Z,99340.34
2018-09-09T20:11:44.014Z,99338.92
2018-09-09T20:14:48.955Z,99346.09
2018-09-09T20:17:53.882Z,99346.09
2018-09-09T20:20:58.809Z,99339.61
2018-09-09T20:24:03.771Z,99340.05
2018-09-09T20:27:08.714Z,99345.10
2018-09-09T20:30:13.628Z,99344.71
2018-09-09T20:33:18.561Z,99349.81
2018-09-09T20:36:23.485Z,99355.59
2018-09-09T20:39:28.437Z,99353.48
2018-09-09T20:42:33.376Z,99353.19
2018-09-09T20:45:38.317Z,99362.73
2018-09-09T20:48:43.245Z,99364.73
2018-09-09T20:51:48.161Z,99367.52
2018-09-09T20:54:53.093Z,99365.11
2018-09-09T20:57:58.017Z,99368.11
2018-09-09T21:01:02.957Z,99371.89
2018-09-09T21:04:07.862Z,99369.87
2018-09-09T21:07:12.789Z,99373.27
2018-09-09T21:10:17.772Z,99369.38
2018-09-09T21:13:22.741Z,99372.34
2018-09-09T21:16:27.692Z,99373.84
2018-09-09T21:19:32.609Z,99380.40
2018-09-09T21:22:37.541Z,99379.59
2018-09-09T21:25:42.463Z,99391.80
2018-09-09T21:28:47.401Z,99386.37
2018-09-09T21:31:52.330Z,99387.73
2018-09-09T21:34:57.301Z,99385.52
2018-09-09T21:38:02.241Z,99387.93
2018-09-09T21:41:07.157Z,99378.60
2018-09-09T21:44:12.101Z,99384.54
2018-09-09T21:47:17.010Z,99382.04
2018-09-09T21:50:21.965Z,99381.59
2018-09-09T21:53:26.912Z,99380.02
2018-09-09T21:56:31.841Z,99373.84
2018-09-09T22:03:17.629Z,99370.38
2018-09-09T22:06:22.554Z,99369.77
2018-09-09T22:09:27.507Z,99369.28
2018-09-09T22:12:32.430Z,99367.38
2018-09-09T22:15:37.401Z,99366.89
2018-09-09T22:18:42.366Z,99370.16
2018-09-09T22:21:48.557Z,99365.42
2018-09-09T22:24:53.488Z,99358.02
2018-09-09T22:27:58.389Z,99362.84
2018-09-09T22:31:03.419Z,99360.26
2018-09-09T22:34:08.353Z,99356.79
2018-09-09T22:37:13.252Z,99358.08
2018-09-09T22:40:18.205Z,99355.63
2018-09-09T22:43:23.149Z,99355.91
2018-09-09T22:46:28.103Z,99361.19
2018-09-09T22:49:33.039Z,99361.40
2018-09-09T22:52:37.984Z,99365.38
2018-09-09T22:55:42.944Z,99362.80
2018-09-09T22:58:47.882Z,99367.06
2018-09-09T23:01:52.828Z,99366.94
2018-09-09T23:04:57.756Z,99365.50
2018-09-09T23:08:02.685Z,99365.50
2018-09-09T23:11:07.636Z,99358.77
2018-09-09T23:14:12.561Z,99364.72
2018-09-09T23:17:17.589Z,99359.44
2018-09-09T23:20:22.735Z,99364.19
2018-09-09T23:23:27.660Z,99365.48
2018-09-09T23:26:32.565Z,99360.05
2018-09-09T23:29:37.475Z,99366.00
2018-09-09T23:32:42.426Z,99360.50
2018-09-09T23:35:47.355Z,99364.49
2018-09-09T23:38:52.285Z,99364.51
2018-09-09T23:41:57.233Z,99373.84
2018-09-09T23:45:02.181Z,99364.44
2018-09-09T23:48:07.324Z,99361.28
2018-09-09T23:51:12.273Z,99360.93
2018-09-09T23:54:17.218Z,99361.16
2018-09-09T23:57:22.161Z,99363.46
